createdAt,value
2018-11-07T16:30:01.046Z,74.20
2018-11-07T16:35:04.397Z,74.10
2018-11-07T16:40:09.612Z,73.40
2018-11-07T16:45:13.791Z,73.30
2018-11-07T16:50:17.804Z,73.90
2018-11-07T16:55:21.024Z,75.50
2018-11-07T17:00:24.270Z,77.40
2018-11-07T17:05:27.447Z,78.00
2018-11-07T17:10:30.661Z,79.00
2018-11-07T17:15:33.937Z,79.40
2018-11-07T17:20:37.157Z,80.60
2018-11-07T17:25:40.456Z,80.50
2018-11-07T17:30:43.721Z,81.90
2018-11-07T17:35:47.210Z,82.60
2018-11-07T17:40:50.447Z,83.50
2018-11-07T17:45:53.635Z,84.00
2018-11-07T17:50:56.804Z,83.70
2018-11-07T17:56:00.016Z,83.10
2018-11-07T18:01:03.254Z,83.60
2018-11-07T18:06:06.459Z,82.40
2018-11-07T18:11:09.687Z,82.90
2018-11-07T18:16:12.920Z,82.30
2018-11-07T18:21:16.216Z,82.20
2018-11-07T18:26:19.426Z,82.10
2018-11-07T18:31:22.624Z,82.30
2018-11-07T18:36:25.840Z,82.00
2018-11-07T18:41:29.027Z,82.00
2018-11-07T18:46:32.211Z,81.80
2018-11-07T18:51:35.392Z,82.00
2018-11-07T18:56:38.572Z,82.30
2018-11-07T19:01:41.901Z,82.40
2018-11-07T19:06:45.128Z,82.70
2018-11-07T19:11:48.367Z,83.00
2018-11-07T19:16:51.668Z,83.00
2018-11-07T19:21:54.823Z,82.70
2018-11-07T19:31:14.988Z,82.80
2018-11-07T19:36:18.373Z,83.20
2018-11-07T19:41:21.574Z,83.10
2018-11-07T19:46:24.793Z,83.80
2018-11-07T19:51:28.022Z,83.60
2018-11-07T19:56:31.169Z,83.10
2018-11-07T20:01:34.392Z,83.30
2018-11-07T20:06:37.620Z,83.70
